createdAt,value
2022-12-22T00:01:59.034Z,1.18
2022-12-22T00:04:46.767Z,1.18
2022-12-22T00:07:33.571Z,1.21
2022-12-22T00:10:20.567Z,1.23
2022-12-22T00:13:07.769Z,1.24
2022-12-22T00:15:55.360Z,1.21
2022-12-22T00:18:42.396Z,1.20
2022-12-22T00:21:33.070Z,1.21
2022-12-22T00:24:20.240Z,1.20
2022-12-22T00:27:07.139Z,1.18
2022-12-22T00:30:00.858Z,1.16
2022-12-22T00:32:56.390Z,1.16
2022-12-22T00:35:44.889Z,1.17
2022-12-22T00:38:38.378Z,1.16
2022-12-22T00:41:25.901Z,1.13
2022-12-22T00:44:12.716Z,1.12
2022-12-22T00:47:02.402Z,1.14
2022-12-22T00:49:53.500Z,1.16
2022-12-22T00:52:42.606Z,1.17
2022-12-22T00:55:39.574Z,1.17
2022-12-22T00:58:34.120Z,1.18
2022-12-22T01:01:21.199Z,1.18
2022-12-22T01:04:08.272Z,1.18
2022-12-22T01:06:55.699Z,1.20
2022-12-22T01:09:43.267Z,1.20
2022-12-22T01:12:37.455Z,1.19
2022-12-22T01:15:34.010Z,1.19
2022-12-22T01:18:20.943Z,1.20
2022-12-22T01:21:09.104Z,1.21
2022-12-22T01:23:57.068Z,1.24
2022-12-22T01:26:44.520Z,1.25
2022-12-22T01:29:31.849Z,1.25
2022-12-22T01:32:22.175Z,1.25
2022-12-22T01:35:09.195Z,1.25
2022-12-22T01:37:56.248Z,1.25
2022-12-22T01:40:44.031Z,1.24
2022-12-22T01:43:46.476Z,1.24
2022-12-22T01:46:48.924Z,1.21
2022-12-22T01:49:52.988Z,1.19
2022-12-22T01:52:46.039Z,1.19
2022-12-22T01:55:36.966Z,1.18
2022-12-22T01:58:42.929Z,1.18
2022-12-22T02:01:30.472Z,1.19
2022-12-22T02:04:18.723Z,1.18
2022-12-22T02:07:07.630Z,1.18
2022-12-22T02:10:13.073Z,1.18
2022-12-22T02:13:21.898Z,1.18
2022-12-22T02:16:27.700Z,1.20
2022-12-22T02:19:38.077Z,1.22
2022-12-22T02:22:34.505Z,1.21
2022-12-22T02:25:45.586Z,1.22
2022-12-22T02:28:33.605Z,1.21
2022-12-22T02:31:20.794Z,1.23
2022-12-22T02:34:07.778Z,1.23
2022-12-22T02:37:21.757Z,1.21
2022-12-22T02:40:21.911Z,1.21
2022-12-22T02:43:28.321Z,1.22
2022-12-22T02:46:28.484Z,1.25
2022-12-22T02:49:23.814Z,1.26
2022-12-22T02:52:17.909Z,1.26
2022-12-22T02:55:04.835Z,1.26
2022-12-22T02:57:53.410Z,1.26
2022-12-22T03:00:40.853Z,1.27
2022-12-22T03:03:28.531Z,1.29
2022-12-22T03:06:15.601Z,1.32
2022-12-22T03:09:02.590Z,1.33
2022-12-22T03:11:49.457Z,1.32
2022-12-22T03:14:36.408Z,1.33
2022-12-22T03:17:23.354Z,1.33
2022-12-22T03:20:10.238Z,1.33
2022-12-22T03:22:57.385Z,1.32
2022-12-22T03:25:44.272Z,1.32
2022-12-22T03:28:12.848Z,1.32
2022-12-22T03:30:41.301Z,1.33
2022-12-22T03:33:10.052Z,1.33
2022-12-22T03:35:38.504Z,1.37
2022-12-22T03:38:06.811Z,1.39
2022-12-22T03:40:35.198Z,1.41
2022-12-22T03:43:22.054Z,1.42
2022-12-22T03:46:10.625Z,1.43
2022-12-22T03:48:39.051Z,1.45
2022-12-22T03:51:07.882Z,1.48
2022-12-22T03:53:37.155Z,1.52
2022-12-22T03:56:07.935Z,1.54
2022-12-22T03:58:36.751Z,1.55
2022-12-22T04:01:07.233Z,1.56
2022-12-22T04:03:35.594Z,1.57
2022-12-22T04:06:04.100Z,1.56
2022-12-22T04:08:32.772Z,1.59
2022-12-22T04:11:19.763Z,1.61
2022-12-22T04:13:49.022Z,1.62
2022-12-22T04:16:17.441Z,1.62
2022-12-22T04:18:45.716Z,1.62
2022-12-22T04:21:14.108Z,1.62
2022-12-22T04:23:42.567Z,1.63
2022-12-22T04:26:10.954Z,1.65
2022-12-22T04:28:39.491Z,1.65
2022-12-22T04:31:07.999Z,1.65
2022-12-22T04:33:36.365Z,1.64
2022-12-22T04:36:05.225Z,1.65
2022-12-22T04:38:33.786Z,1.65
2022-12-22T04:41:19.255Z,1.69
2022-12-22T04:43:47.853Z,1.69
2022-12-22T04:46:16.299Z,1.69
2022-12-22T04:48:47.560Z,1.71
2022-12-22T04:51:16.065Z,1.72
2022-12-22T04:53:44.479Z,1.73
2022-12-22T04:56:12.948Z,1.74
2022-12-22T04:58:41.549Z,1.76
2022-12-22T05:01:16.118Z,1.77
2022-12-22T05:03:45.438Z,1.77
2022-12-22T05:06:14.905Z,1.76
2022-12-22T05:08:43.441Z,1.77
2022-12-22T05:11:12.149Z,1.78
2022-12-22T05:13:40.607Z,1.80
2022-12-22T05:16:14.844Z,1.83
2022-12-22T05:18:45.491Z,1.84
2022-12-22T05:21:19.753Z,1.85
2022-12-22T05:23:49.864Z,1.83
2022-12-22T05:26:19.380Z,1.83
2022-12-22T05:28:48.251Z,1.84
2022-12-22T05:31:22.639Z,1.85
2022-12-22T05:33:51.564Z,1.87
2022-12-22T05:36:20.362Z,1.87
2022-12-22T05:38:48.873Z,1.88
2022-12-22T05:41:17.216Z,1.87
2022-12-22T05:43:45.574Z,1.85
2022-12-22T05:46:14.062Z,1.85
2022-12-22T05:48:42.477Z,1.85
2022-12-22T05:51:11.294Z,1.87
2022-12-22T05:53:41.851Z,1.90
2022-12-22T05:56:13.680Z,1.89
2022-12-22T05:58:45.738Z,1.88
2022-12-22T06:01:14.561Z,1.86
2022-12-22T06:03:43.302Z,1.85
2022-12-22T06:06:11.971Z,1.85
2022-12-22T06:08:43.145Z,1.86
2022-12-22T06:11:12.537Z,1.86
2022-12-22T06:14:01.583Z,1.87
2022-12-22T06:16:30.042Z,1.86
2022-12-22T06:22:56.801Z,1.88
2022-12-22T06:26:05.341Z,1.87
2022-12-22T06:28:36.604Z,1.85
2022-12-22T06:31:06.059Z,1.85
2022-12-22T06:33:36.011Z,1.85
2022-12-22T06:36:06.416Z,1.86
2022-12-22T06:38:36.277Z,1.88
2022-12-22T06:41:05.795Z,1.87
2022-12-22T06:43:38.092Z,1.84
2022-12-22T06:46:06.955Z,1.83
2022-12-22T06:48:35.598Z,1.83
2022-12-22T06:51:05.639Z,1.83
2022-12-22T06:53:34.576Z,1.84
2022-12-22T06:56:03.474Z,1.83
2022-12-22T06:58:33.403Z,1.83
2022-12-22T07:07:25.573Z,1.85
2022-12-22T07:09:56.276Z,1.83
2022-12-22T07:12:40.341Z,1.84
2022-12-22T07:15:10.072Z,1.83
2022-12-22T07:17:39.025Z,1.82
2022-12-22T07:20:10.518Z,1.83
2022-12-22T07:22:43.685Z,1.84
2022-12-22T07:25:13.699Z,1.85
2022-12-22T07:27:45.295Z,1.86
2022-12-22T07:30:15.438Z,1.88
2022-12-22T07:32:44.251Z,1.88
2022-12-22T07:35:13.060Z,1.88
2022-12-22T07:37:41.367Z,1.90
2022-12-22T07:40:15.638Z,1.91
2022-12-22T07:42:46.483Z,1.94
2022-12-22T07:45:24.393Z,1.95
2022-12-22T07:48:01.385Z,1.95
2022-12-22T07:50:30.429Z,1.95
2022-12-22T07:53:10.412Z,1.95
2022-12-22T07:55:39.817Z,1.95
2022-12-22T07:58:09.458Z,1.96
2022-12-22T08:00:38.894Z,1.98
2022-12-22T08:03:10.431Z,1.98
2022-12-22T08:05:46.348Z,1.97
2022-12-22T08:08:17.614Z,1.98
2022-12-22T08:10:46.708Z,2.01
2022-12-22T08:13:15.972Z,2.06
2022-12-22T08:15:45.084Z,2.13
2022-12-22T08:18:14.427Z,2.19
2022-12-22T08:20:50.125Z,2.28
2022-12-22T08:23:19.223Z,2.35
2022-12-22T08:25:51.143Z,2.41
2022-12-22T08:28:19.751Z,2.44
2022-12-22T08:30:49.017Z,2.40
2022-12-22T08:33:17.531Z,2.40
2022-12-22T08:35:46.103Z,2.38
2022-12-22T08:38:15.257Z,2.36
2022-12-22T08:40:45.702Z,2.34
2022-12-22T08:43:39.157Z,2.35
2022-12-22T08:46:07.991Z,2.36
2022-12-22T08:48:36.478Z,2.34
2022-12-22T08:51:05.238Z,2.32
2022-12-22T08:56:22.495Z,2.28
2022-12-22T08:58:53.202Z,2.27
2022-12-22T09:01:24.133Z,2.26
2022-12-22T09:03:54.438Z,2.25
2022-12-22T09:06:27.580Z,2.24
2022-12-22T09:08:58.759Z,2.23
2022-12-22T09:11:29.067Z,2.24
2022-12-22T09:14:01.586Z,2.24
2022-12-22T09:16:32.868Z,2.27
2022-12-22T09:19:02.185Z,2.30
2022-12-22T09:21:31.100Z,2.31
2022-12-22T09:24:00.143Z,2.30
2022-12-22T09:26:29.586Z,2.31
2022-12-22T09:28:58.174Z,2.34
2022-12-22T09:31:27.768Z,2.36
2022-12-22T09:33:56.838Z,2.40
2022-12-22T09:36:27.947Z,2.41
2022-12-22T09:38:56.942Z,2.42
2022-12-22T09:41:36.657Z,2.44
2022-12-22T09:44:10.959Z,2.48
2022-12-22T09:46:40.785Z,2.52
2022-12-22T09:49:18.855Z,2.50
2022-12-22T09:51:52.524Z,2.51
2022-12-22T09:54:25.349Z,2.52
2022-12-22T09:56:53.891Z,2.57
2022-12-22T09:59:26.581Z,2.62
2022-12-22T10:02:17.368Z,2.67
2022-12-22T10:04:57.716Z,2.68
2022-12-22T10:07:32.806Z,2.68
2022-12-22T10:10:25.317Z,2.71
2022-12-22T10:13:02.855Z,2.78
2022-12-22T10:15:37.911Z,2.83
2022-12-22T10:18:12.849Z,2.85
2022-12-22T10:20:43.046Z,2.84
2022-12-22T10:23:19.001Z,2.87
2022-12-22T10:29:15.678Z,2.95
2022-12-22T10:32:03.978Z,2.98
2022-12-22T10:34:33.304Z,2.98
2022-12-22T10:37:05.542Z,2.94
2022-12-22T10:39:35.834Z,2.90
2022-12-22T10:42:11.808Z,2.90
2022-12-22T10:44:51.237Z,2.91
2022-12-22T10:47:27.597Z,2.89
2022-12-22T10:50:03.538Z,2.85
2022-12-22T10:52:33.462Z,2.86
2022-12-22T10:55:28.112Z,2.90
2022-12-22T10:58:17.211Z,2.92
2022-12-22T11:01:04.764Z,2.95
2022-12-22T11:03:33.920Z,2.95
2022-12-22T11:06:03.202Z,2.95
2022-12-22T11:08:32.830Z,2.98
2022-12-22T11:11:19.777Z,3.01
2022-12-22T11:14:03.176Z,3.06
2022-12-22T11:17:11.217Z,3.13
2022-12-22T11:19:59.554Z,3.19
2022-12-22T11:23:36.311Z,3.35
2022-12-22T11:26:56.166Z,3.65
2022-12-22T11:30:03.064Z,3.85
2022-12-22T11:32:42.626Z,3.95
2022-12-22T11:35:31.359Z,3.99
2022-12-22T11:38:15.790Z,4.01
2022-12-22T11:40:52.558Z,4.02
2022-12-22T11:43:52.540Z,4.03
2022-12-22T11:46:49.249Z,4.04
2022-12-22T11:49:48.863Z,4.06
2022-12-22T11:52:46.015Z,4.11
2022-12-22T11:55:43.575Z,4.14
2022-12-22T11:58:27.176Z,4.14
2022-12-22T12:01:31.050Z,4.13
2022-12-22T12:08:41.031Z,4.22
2022-12-22T12:12:09.270Z,4.25
2022-12-22T12:15:09.597Z,4.28
2022-12-22T12:18:18.940Z,4.38
2022-12-22T12:21:13.510Z,4.50
2022-12-22T12:24:31.266Z,4.58
2022-12-22T12:27:05.901Z,4.84
2022-12-22T12:34:23.081Z,5.33
2022-12-22T12:37:58.829Z,5.59
2022-12-22T12:48:13.651Z,5.32
2022-12-22T12:53:35.850Z,4.87
2022-12-22T13:00:59.185Z,4.26
2022-12-22T13:04:02.550Z,3.99
2022-12-22T13:07:08.460Z,3.74
2022-12-22T13:10:56.653Z,3.59
2022-12-22T13:13:42.398Z,3.49
2022-12-22T13:17:39.076Z,3.42
2022-12-22T13:21:55.306Z,3.35
2022-12-22T13:24:49.554Z,3.28
2022-12-22T13:27:26.514Z,3.24
2022-12-22T13:29:58.469Z,3.24
2022-12-22T13:32:37.094Z,3.24
2022-12-22T13:35:31.017Z,3.25
2022-12-22T13:38:02.104Z,3.26
2022-12-22T13:40:44.511Z,3.25
2022-12-22T13:43:17.905Z,3.25
2022-12-22T13:45:52.102Z,3.27
2022-12-22T13:48:53.392Z,3.30
2022-12-22T13:51:29.389Z,3.33
2022-12-22T13:54:13.340Z,3.33
2022-12-22T13:56:49.450Z,3.33
2022-12-22T13:59:34.863Z,3.34
2022-12-22T14:02:09.077Z,3.36
2022-12-22T14:04:43.384Z,3.36
2022-12-22T14:07:16.388Z,3.38
2022-12-22T14:14:20.584Z,3.37
2022-12-22T14:16:52.119Z,3.36
2022-12-22T14:19:23.369Z,3.36
2022-12-22T14:22:01.812Z,3.34
2022-12-22T14:24:38.371Z,3.30
2022-12-22T14:27:24.034Z,3.25
2022-12-22T14:29:55.705Z,3.24
2022-12-22T14:32:37.717Z,3.24
2022-12-22T14:35:22.320Z,3.25
2022-12-22T14:37:59.607Z,3.25
2022-12-22T14:40:45.437Z,3.23
2022-12-22T14:43:18.339Z,3.22
2022-12-22T14:45:49.909Z,3.23
2022-12-22T14:48:25.424Z,3.22
2022-12-22T14:55:25.763Z,3.23
2022-12-22T14:58:05.646Z,3.22
2022-12-22T15:00:40.042Z,3.22
2022-12-22T15:03:33.274Z,3.23
2022-12-22T15:06:41.979Z,3.28
2022-12-22T15:09:15.272Z,3.33
2022-12-22T15:11:52.122Z,3.33
2022-12-22T15:14:34.962Z,3.30
2022-12-22T15:17:20.562Z,3.28
2022-12-22T15:19:51.981Z,3.28
2022-12-22T15:22:23.804Z,3.29
2022-12-22T15:24:58.673Z,3.28
2022-12-22T15:27:45.251Z,3.27
2022-12-22T15:30:21.256Z,3.26
2022-12-22T15:32:56.305Z,3.27
2022-12-22T15:35:34.479Z,3.28
2022-12-22T15:38:19.100Z,3.29
2022-12-22T15:40:52.411Z,3.27
2022-12-22T15:46:23.176Z,3.24
2022-12-22T15:48:56.071Z,3.23
2022-12-22T15:51:40.391Z,3.21
2022-12-22T15:54:17.732Z,3.20
2022-12-22T15:56:55.220Z,3.18
2022-12-22T15:59:33.419Z,3.15
2022-12-22T16:02:15.712Z,3.11
2022-12-22T16:04:47.988Z,3.08
2022-12-22T16:07:19.890Z,3.06
2022-12-22T16:09:51.518Z,3.04
2022-12-22T16:12:23.680Z,3.02
2022-12-22T16:15:10.834Z,2.99
2022-12-22T16:17:46.763Z,2.96
2022-12-22T16:20:25.460Z,2.93
2022-12-22T16:23:04.776Z,2.93
2022-12-22T16:25:39.450Z,2.92
2022-12-22T16:28:25.728Z,2.92
2022-12-22T16:31:04.923Z,2.91
2022-12-22T16:33:38.564Z,2.90
2022-12-22T16:36:10.332Z,2.89
2022-12-22T16:38:46.549Z,2.91
2022-12-22T16:41:26.913Z,2.94
2022-12-22T16:44:05.682Z,2.93
2022-12-22T16:46:41.736Z,2.91
2022-12-22T16:49:22.905Z,2.90
2022-12-22T16:52:06.199Z,2.91
2022-12-22T16:54:37.542Z,2.92
2022-12-22T16:57:11.723Z,2.95
2022-12-22T17:03:56.360Z,2.97
2022-12-22T17:06:31.260Z,2.97
2022-12-22T17:09:14.538Z,2.99
2022-12-22T17:11:53.730Z,3.02
2022-12-22T17:14:37.571Z,3.05
2022-12-22T17:23:56.606Z,3.19
2022-12-22T17:26:27.241Z,3.18
2022-12-22T17:28:57.187Z,3.22
2022-12-22T17:35:26.142Z,3.26
2022-12-22T18:21:06.208Z,3.26
2022-12-22T18:23:08.147Z,3.25
2022-12-22T18:24:23.629Z,3.26
2022-12-22T18:27:17.071Z,3.29
2022-12-22T18:30:14.749Z,3.31
2022-12-22T18:32:53.149Z,3.29
2022-12-22T18:35:38.991Z,3.28
2022-12-22T18:38:29.868Z,3.28
2022-12-22T18:41:08.030Z,3.30
2022-12-22T18:43:44.908Z,3.32
2022-12-22T18:46:30.410Z,3.34
2022-12-22T18:49:10.847Z,3.34
2022-12-22T18:55:42.496Z,3.31
2022-12-22T19:01:48.071Z,3.32
2022-12-22T19:04:34.407Z,3.32
2022-12-22T19:10:50.121Z,3.32
2022-12-22T19:13:57.935Z,3.33
2022-12-22T19:16:36.135Z,3.35
2022-12-22T19:26:27.159Z,3.37
2022-12-22T19:30:30.955Z,3.39
2022-12-22T19:32:32.655Z,3.41
2022-12-22T19:38:50.196Z,3.44
2022-12-22T19:42:10.811Z,3.44
2022-12-22T19:49:32.535Z,3.45
2022-12-22T19:52:56.813Z,3.48
2022-12-22T19:55:53.283Z,3.51
2022-12-22T19:58:44.114Z,3.50
2022-12-22T20:01:20.451Z,3.51
2022-12-22T20:03:49.906Z,3.52
2022-12-22T20:06:39.227Z,3.53
2022-12-22T20:16:10.344Z,3.55
2022-12-22T20:18:39.653Z,3.55
2022-12-22T20:21:25.288Z,3.56
2022-12-22T20:23:57.182Z,3.58
2022-12-22T20:27:09.599Z,3.61
2022-12-22T20:29:52.836Z,3.64
2022-12-22T20:32:29.262Z,3.64
2022-12-22T20:35:14.109Z,3.65
2022-12-22T20:38:40.949Z,3.65
2022-12-22T20:41:11.851Z,3.67
2022-12-22T20:46:45.218Z,3.69
2022-12-22T20:49:16.938Z,3.70
2022-12-22T20:52:00.050Z,3.70
2022-12-22T20:54:53.489Z,3.69
2022-12-22T20:57:57.618Z,3.69
2022-12-22T21:00:38.518Z,3.71
2022-12-22T21:03:11.346Z,3.72
2022-12-22T21:05:54.409Z,3.71
2022-12-22T21:08:27.458Z,3.69
2022-12-22T21:11:38.807Z,3.68
2022-12-22T21:14:12.220Z,3.67
2022-12-22T21:16:42.420Z,3.67
2022-12-22T21:22:12.286Z,3.67
2022-12-22T21:29:34.745Z,3.65
2022-12-22T21:32:22.154Z,3.66
2022-12-22T21:37:59.182Z,3.69
2022-12-22T21:43:40.796Z,3.69
2022-12-22T21:46:14.149Z,3.70
2022-12-22T21:48:45.897Z,3.73
2022-12-22T21:51:24.782Z,3.74
2022-12-22T21:53:59.721Z,3.75
2022-12-22T21:56:28.219Z,3.75
2022-12-22T21:59:03.439Z,3.76
2022-12-22T22:01:33.554Z,3.77
2022-12-22T22:04:02.508Z,3.79
2022-12-22T22:06:31.508Z,3.79
2022-12-22T22:09:00.314Z,3.78
2022-12-22T22:11:28.718Z,3.76
2022-12-22T22:13:57.404Z,3.75
2022-12-22T22:16:26.219Z,3.76
2022-12-22T22:18:54.739Z,3.79
2022-12-22T22:21:23.129Z,3.82
2022-12-22T22:23:53.657Z,3.84
2022-12-22T22:26:24.649Z,3.82
2022-12-22T22:28:54.034Z,3.81
2022-12-22T22:31:22.581Z,3.81
2022-12-22T22:33:51.107Z,3.79
2022-12-22T22:36:19.553Z,3.77
2022-12-22T22:38:54.376Z,3.76
2022-12-22T22:41:22.949Z,3.75
2022-12-22T22:43:54.814Z,3.72
2022-12-22T22:46:23.462Z,3.69
2022-12-22T22:48:52.012Z,3.68
2022-12-22T22:51:22.474Z,3.68
2022-12-22T22:53:50.946Z,3.67
2022-12-22T22:56:19.409Z,3.66
2022-12-22T22:58:47.988Z,3.66
2022-12-22T23:01:16.400Z,3.64
2022-12-22T23:03:44.851Z,3.64
2022-12-22T23:06:14.282Z,3.63
2022-12-22T23:08:42.803Z,3.63
2022-12-22T23:11:15.087Z,3.64
2022-12-22T23:13:43.861Z,3.65
2022-12-22T23:16:12.311Z,3.65
2022-12-22T23:18:41.460Z,3.63
2022-12-22T23:21:10.246Z,3.62
2022-12-22T23:23:38.795Z,3.61
2022-12-22T23:26:07.360Z,3.61
2022-12-22T23:28:35.833Z,3.62
2022-12-22T23:31:05.405Z,3.63
2022-12-22T23:33:34.090Z,3.64
2022-12-22T23:36:02.459Z,3.62
2022-12-22T23:38:31.865Z,3.62
2022-12-22T23:41:06.006Z,3.61
2022-12-22T23:43:34.683Z,3.61
2022-12-22T23:46:11.223Z,3.62
2022-12-22T23:48:42.600Z,3.61
2022-12-22T23:51:13.937Z,3.60
2022-12-22T23:53:43.430Z,3.59
2022-12-22T23:56:14.482Z,3.60
2022-12-22T23:58:47.040Z,3.60
